Wachtebeke, Belgium
Current Conditions -  °F | °C
As of 12:25 PM on Thursday 18 Dec 2014 (Local Time) from EHFS Reporting Station
Overcast Overcast  
Wind Chill: 52°   Ceiling: 900
Heat Index: 52°   Visibility: 5mi
Dew Point: 50°   Wind: 32mph
Humidity: 94%   Direction: 250°WSW
Pressure: 29.83"   Gusts: NA
Location:  51.17°N, 3.87°E
Report Text: EHFS 181125Z AUTO 25028KT 8000 SCT008/// BKN009/// OVC012///11/10 Q1010
Loading
Personal Weather Stations






























Interactive Weather Map New forecast layout! Learn more

10-Day Weather Forecast

Advertisements
Track Severe Weather on mobile